Grayling, Michigan
Current Conditions -  °F | °C
As of 10:55 AM on Saturday 25 Oct 2014 (Local Time) from KGOV Reporting Station
Clear Clear  
Wind Chill: 59°   Ceiling: Unl
Heat Index: 59°   Visibility: 10mi
Dew Point: 47°   Wind: 13mph
Humidity: 65%   Direction: 290°WNW
Pressure: 29.74"   Gusts: 17mph
Location:  44.66°N, 84.71°W
Report Text: KGOV 251455Z AUTO 29011G15KT 10SM CLR 15/08 A2974 RMK AO2 T01500084
Loading
Personal Weather Stations






























Interactive Weather Map
Tropical Storm Tracking
New forecast layout! Learn more

10-Day Weather Forecast

Advertisements
Track Severe Weather on mobile